Time;durP1;ratioP1;P1;durP2;ratioP2;P2;SDS_P1;SDS_P2;PMS_P1;PMS_P2;Temp;Humidity;BMP_temperature;BMP_pressure;BME280_temperature;BME280_humidity;BME280_pressure;Samples;Min_cycle;Max_cycle;Signal;HPM_P1;HPM_P2
2022/03/28 00:01:24;;;;;;;;;;;;;;;11.09;57.73;98906.13;5013792;28;19925;-76
2022/03/28 00:03:53;;;;;;;;;;;;;;;11.13;57.53;98897.09;5011896;28;19925;-76
2022/03/28 00:06:23;;;;;;;;;;;;;;;10.80;57.58;98898.00;5014468;28;19932;-76
2022/03/28 00:08:53;;;;;;;;;;;;;;;10.86;57.63;98894.13;5023526;28;19940;-76
2022/03/28 00:11:25;;;;;;;;;;;;;;;11.04;58.27;98892.56;4999625;28;19926;-76
2022/03/28 00:13:56;;;;;;;;;;;;;;;11.01;57.04;98889.31;5014562;28;19948;-76
2022/03/28 00:16:28;;;;;;;;;;;;;;;10.96;58.05;98892.09;4997912;28;20015;-76
2022/03/28 00:18:58;;;;;;;;;;;;;;;10.79;57.98;98885.50;5009646;28;19925;-76
2022/03/28 00:21:27;;;;;;;;;;;;;;;10.83;57.87;98883.84;5024142;28;19925;-76
2022/03/28 00:23:59;;;;;;;;;;;;;;;10.90;58.17;98878.88;4995126;28;22549;-76
2022/03/28 00:26:28;;;;;;;;;;;;;;;10.82;58.89;98880.31;5016017;28;20151;-76
2022/03/28 00:28:58;;;;;;;;;;;;;;;10.71;59.31;98884.25;5017381;28;19978;-76
2022/03/28 00:31:29;;;;;;;;;;;;;;;10.52;60.61;98881.44;5021371;28;20085;-76
2022/03/28 00:33:57;;;;;;;;;;;;;;;10.13;60.81;98884.22;5001306;28;20359;-76
2022/03/28 00:36:35;;;;;;;;;;;;;;;10.17;60.54;98874.41;4998965;28;19924;-76
2022/03/28 00:39:04;;;;;;;;;;;;;;;10.13;60.05;98879.59;5002399;28;19925;-76
2022/03/28 00:41:32;;;;;;;;;;;;;;;10.29;59.63;98872.16;5011478;28;19929;-76
2022/03/28 00:44:03;;;;;;;;;;;;;;;10.33;59.04;98873.19;5031458;28;19925;-76
2022/03/28 00:46:58;;;;;;;;;;;;;;;10.36;60.34;98869.91;5017731;28;19936;-76
2022/03/28 00:49:28;;;;;;;;;;;;;;;10.21;60.81;98859.97;5007887;28;19937;-76
2022/03/28 00:51:58;;;;;;;;;;;;;;;10.15;60.11;98860.31;5005952;28;19931;-76
2022/03/28 00:54:28;;;;;;;;;;;;;;;9.97;60.27;98856.38;5001300;28;20276;-76
2022/03/28 00:56:57;;;;;;;;;;;;;;;10.03;60.03;98862.59;5017442;28;19925;-76
2022/03/28 00:59:31;;;;;;;;;;;;;;;10.04;60.22;98858.78;5002792;28;19932;-76
2022/03/28 01:02:02;;;;;;;;;;;;;;;10.05;60.05;98857.66;5011485;28;20003;-76
2022/03/28 01:04:33;;;;;;;;;;;;;;;10.12;59.68;98850.00;5018513;28;19925;-76
2022/03/28 01:07:01;;;;;;;;;;;;;;;10.01;60.09;98854.72;5020199;28;19925;-76
2022/03/28 01:09:31;;;;;;;;;;;;;;;10.05;59.59;98844.09;4999862;28;19925;-76
2022/03/28 01:11:59;;;;;;;;;;;;;;;9.98;60.49;98849.84;5008092;28;19971;-76
2022/03/28 01:14:29;;;;;;;;;;;;;;;9.93;60.58;98848.00;4998896;28;20375;-76
2022/03/28 01:19:49;;;;;;;;;;;;;;;9.66;62.17;98851.19;5005904;28;20058;-76
2022/03/28 01:22:19;;;;;;;;;;;;;;;9.39;61.83;98840.78;5015559;28;20365;-76
2022/03/28 01:25:24;;;;;;;;;;;;;;;9.43;61.85;98838.34;5022199;28;19925;-76
2022/03/28 01:27:55;;;;;;;;;;;;;;;9.54;60.69;98841.78;5012777;28;19925;-76
2022/03/28 01:30:24;;;;;;;;;;;;;;;9.62;61.42;98841.97;5016540;28;20391;-75
2022/03/28 01:32:54;;;;;;;;;;;;;;;9.18;62.38;98836.56;5011618;28;19960;-75
2022/03/28 01:35:46;;;;;;;;;;;;;;;9.22;63.53;98832.22;5008207;28;19925;-75
2022/03/28 01:38:17;;;;;;;;;;;;;;;9.24;62.86;98824.59;5003503;28;20311;-75
2022/03/28 01:40:49;;;;;;;;;;;;;;;9.31;61.92;98829.72;5024223;28;19931;-76
2022/03/28 01:43:26;;;;;;;;;;;;;;;9.47;61.68;98828.50;5033650;28;20331;-76
2022/03/28 01:46:19;;;;;;;;;;;;;;;9.32;61.13;98829.44;5016036;28;20330;-76
2022/03/28 01:48:48;;;;;;;;;;;;;;;9.50;62.07;98829.88;5036382;28;20019;-76
2022/03/28 01:51:18;;;;;;;;;;;;;;;9.36;61.54;98827.78;5035264;28;19925;-76
2022/03/28 01:53:49;;;;;;;;;;;;;;;9.26;61.53;98830.53;5010744;28;19925;-76
2022/03/28 01:56:18;;;;;;;;;;;;;;;9.11;61.85;98828.75;5010880;28;19925;-76
2022/03/28 01:58:48;;;;;;;;;;;;;;;9.37;61.23;98828.59;5019535;28;20022;-75
2022/03/28 02:01:17;;;;;;;;;;;;;;;9.50;61.79;98827.97;5010726;28;19925;-76
2022/03/28 02:03:45;;;;;;;;;;;;;;;9.59;60.85;98820.06;5030378;28;19932;-76
2022/03/28 02:06:14;;;;;;;;;;;;;;;9.53;60.58;98827.38;5005035;28;19948;-76
2022/03/28 02:08:43;;;;;;;;;;;;;;;9.49;60.64;98825.53;5033211;28;19925;-76
2022/03/28 02:11:13;;;;;;;;;;;;;;;9.69;60.36;98819.94;5009426;28;19929;-76
2022/03/28 02:13:43;;;;;;;;;;;;;;;9.75;60.18;98821.56;5009795;28;20254;-75
2022/03/28 02:16:14;;;;;;;;;;;;;;;9.65;60.65;98818.91;5012522;28;19968;-76
2022/03/28 02:18:43;;;;;;;;;;;;;;;9.64;60.91;98818.13;5012666;28;19931;-76
2022/03/28 02:21:11;;;;;;;;;;;;;;;9.56;60.31;98818.69;5009028;28;19931;-76
2022/03/28 02:23:39;;;;;;;;;;;;;;;9.41;60.42;98814.19;5016716;28;19925;-75
2022/03/28 02:26:07;;;;;;;;;;;;;;;9.27;60.25;98818.63;5007666;28;20322;-75
2022/03/28 02:28:37;;;;;;;;;;;;;;;9.17;60.98;98818.69;5001725;28;20020;-75
2022/03/28 02:31:07;;;;;;;;;;;;;;;8.71;61.94;98815.38;5016017;28;19924;-75
2022/03/28 02:33:37;;;;;;;;;;;;;;;8.89;61.87;98812.03;5008033;28;20004;-75
2022/03/28 02:36:07;;;;;;;;;;;;;;;9.01;61.74;98819.84;5001347;28;19925;-75
2022/03/28 02:38:35;;;;;;;;;;;;;;;9.14;61.91;98816.53;5008478;28;19959;-75
2022/03/28 02:41:06;;;;;;;;;;;;;;;9.23;61.39;98809.44;5012752;28;19972;-76
2022/03/28 02:43:34;;;;;;;;;;;;;;;9.00;61.06;98810.09;5018904;28;19968;-78
2022/03/28 02:46:10;;;;;;;;;;;;;;;8.95;61.57;98807.41;5022927;28;19925;-78
2022/03/28 02:48:45;;;;;;;;;;;;;;;9.08;62.09;98801.38;5021052;28;20379;-75
2022/03/28 02:51:17;;;;;;;;;;;;;;;9.23;61.08;98798.59;5036530;28;19960;-75
2022/03/28 02:53:49;;;;;;;;;;;;;;;9.23;61.70;98805.91;5007951;28;20375;-75
2022/03/28 02:56:21;;;;;;;;;;;;;;;8.99;61.38;98806.56;5028667;28;19925;-76
2022/03/28 02:58:53;;;;;;;;;;;;;;;8.91;60.70;98794.41;5010195;28;19948;-75
2022/03/28 03:01:26;;;;;;;;;;;;;;;8.72;61.35;98793.41;5002587;28;19925;-76
2022/03/28 03:03:55;;;;;;;;;;;;;;;8.56;61.80;98787.25;4995455;28;20367;-76
2022/03/28 03:06:25;;;;;;;;;;;;;;;8.67;62.29;98796.13;5004860;28;19930;-76
2022/03/28 03:08:53;;;;;;;;;;;;;;;8.53;62.41;98792.41;5002586;28;20141;-76
2022/03/28 03:11:22;;;;;;;;;;;;;;;8.60;63.37;98787.50;5001949;28;20057;-76
2022/03/28 03:13:53;;;;;;;;;;;;;;;8.58;63.12;98790.50;5001171;28;20027;-76
2022/03/28 03:16:24;;;;;;;;;;;;;;;8.65;61.83;98791.00;5021021;28;19937;-76
2022/03/28 03:18:57;;;;;;;;;;;;;;;8.24;63.33;98782.16;5007772;28;20020;-76
2022/03/28 03:21:26;;;;;;;;;;;;;;;8.40;63.72;98778.34;5001659;28;19936;-76
2022/03/28 03:23:57;;;;;;;;;;;;;;;8.55;62.78;98774.78;4991916;28;19929;-76
2022/03/28 03:26:27;;;;;;;;;;;;;;;8.32;62.39;98778.09;5015761;28;19924;-76
2022/03/28 03:28:58;;;;;;;;;;;;;;;8.66;61.43;98772.84;5006455;28;19975;-75
2022/03/28 03:31:30;;;;;;;;;;;;;;;8.57;62.88;98775.31;5004985;28;19925;-76
2022/03/28 03:33:59;;;;;;;;;;;;;;;8.24;63.81;98773.22;5008014;28;19929;-76
2022/03/28 03:36:27;;;;;;;;;;;;;;;8.23;63.18;98767.00;5001410;28;19925;-76
2022/03/28 03:38:56;;;;;;;;;;;;;;;8.17;62.75;98768.13;5015973;28;20033;-76
2022/03/28 03:41:26;;;;;;;;;;;;;;;8.28;62.58;98764.28;5012673;28;19960;-76
2022/03/28 03:43:57;;;;;;;;;;;;;;;8.44;62.20;98767.78;5009323;28;19932;-76
2022/03/28 03:46:25;;;;;;;;;;;;;;;8.44;62.11;98767.78;5012405;28;19924;-77
2022/03/28 03:49:30;;;;;;;;;;;;;;;8.57;61.74;98767.19;5033537;28;19925;-77
2022/03/28 03:51:59;;;;;;;;;;;;;;;8.42;62.04;98766.47;5009639;28;19954;-77
2022/03/28 03:54:31;;;;;;;;;;;;;;;8.53;62.28;98766.16;5010252;28;20325;-76
2022/03/28 03:57:00;;;;;;;;;;;;;;;8.30;62.26;98762.09;5002362;28;19978;-76
2022/03/28 03:59:28;;;;;;;;;;;;;;;8.47;62.18;98758.28;5007884;28;19978;-76
2022/03/28 04:01:58;;;;;;;;;;;;;;;8.24;63.45;98757.00;5033398;28;19925;-76
2022/03/28 04:04:27;;;;;;;;;;;;;;;8.30;63.10;98754.00;5023380;28;20652;-76
2022/03/28 04:06:58;;;;;;;;;;;;;;;8.40;62.17;98750.47;5023642;28;19925;-77
2022/03/28 04:09:28;;;;;;;;;;;;;;;8.43;62.71;98751.84;5016481;28;19967;-77
2022/03/28 04:12:02;;;;;;;;;;;;;;;8.39;62.56;98746.97;5016943;28;19961;-76
2022/03/28 04:14:31;;;;;;;;;;;;;;;7.80;63.67;98744.09;5018700;28;19952;-76
2022/03/28 04:16:59;;;;;;;;;;;;;;;7.64;65.38;98739.78;4988119;28;19933;-76
2022/03/28 04:19:27;;;;;;;;;;;;;;;7.46;64.58;98744.66;5016549;28;19924;-76
2022/03/28 04:22:02;;;;;;;;;;;;;;;7.66;64.08;98740.31;5016993;28;19933;-76
2022/03/28 04:24:31;;;;;;;;;;;;;;;7.85;63.48;98741.38;5007423;28;19933;-76
2022/03/28 04:27:01;;;;;;;;;;;;;;;7.94;62.72;98745.16;5010079;28;19933;-76
2022/03/28 04:29:31;;;;;;;;;;;;;;;8.11;62.46;98734.84;5032564;28;19956;-76
2022/03/28 04:31:59;;;;;;;;;;;;;;;7.90;62.66;98730.56;5010358;28;20027;-76
2022/03/28 04:34:29;;;;;;;;;;;;;;;7.92;63.17;98735.69;4990565;28;19925;-76
2022/03/28 04:36:57;;;;;;;;;;;;;;;8.05;62.58;98733.25;5022630;28;19925;-76
2022/03/28 04:39:27;;;;;;;;;;;;;;;8.13;62.23;98729.16;4998788;28;19925;-76
2022/03/28 04:42:00;;;;;;;;;;;;;;;7.73;62.97;98730.88;5011736;28;19960;-77
2022/03/28 04:44:30;;;;;;;;;;;;;;;7.99;62.34;98726.22;5010450;28;20615;-76
2022/03/28 04:46:58;;;;;;;;;;;;;;;8.14;61.84;98725.34;5010239;28;20290;-75
2022/03/28 04:49:29;;;;;;;;;;;;;;;8.12;62.15;98731.03;5014902;28;19948;-76
2022/03/28 04:51:58;;;;;;;;;;;;;;;8.15;62.35;98727.00;5009182;28;19925;-75
2022/03/28 04:54:28;;;;;;;;;;;;;;;8.25;61.33;98736.94;5014080;28;20333;-75
2022/03/28 04:57:00;;;;;;;;;;;;;;;8.06;61.48;98734.03;5011089;28;20015;-75
2022/03/28 04:59:29;;;;;;;;;;;;;;;8.11;62.43;98732.13;5024826;28;19990;-76
2022/03/28 05:02:00;;;;;;;;;;;;;;;8.15;61.83;98737.81;5013051;28;20024;-75
2022/03/28 05:04:29;;;;;;;;;;;;;;;7.92;62.88;98727.56;5012328;28;19971;-76
2022/03/28 05:06:59;;;;;;;;;;;;;;;7.93;62.59;98730.00;5025699;28;20011;-76
2022/03/28 05:09:31;;;;;;;;;;;;;;;7.99;62.65;98728.09;5006579;28;19925;-76
2022/03/28 05:12:00;;;;;;;;;;;;;;;7.83;62.67;98730.84;5021659;28;19925;-72
2022/03/28 05:14:29;;;;;;;;;;;;;;;7.94;64.05;98736.25;5015326;28;19925;-72
2022/03/28 05:16:59;;;;;;;;;;;;;;;7.41;64.52;98735.75;5005043;28;19925;-74
2022/03/28 05:19:30;;;;;;;;;;;;;;;7.16;65.28;98737.34;5005153;28;20020;-77
2022/03/28 05:21:59;;;;;;;;;;;;;;;7.16;64.90;98731.94;5008479;28;20401;-77
2022/03/28 05:24:29;;;;;;;;;;;;;;;7.03;65.47;98743.25;5006677;28;19935;-73
2022/03/28 05:27:02;;;;;;;;;;;;;;;6.77;65.42;98735.13;5018898;28;20414;-75
2022/03/28 05:29:30;;;;;;;;;;;;;;;6.44;66.89;98735.53;5017760;28;19971;-72
2022/03/28 05:32:01;;;;;;;;;;;;;;;6.55;66.13;98734.50;5013599;28;19925;-75
2022/03/28 05:34:31;;;;;;;;;;;;;;;6.76;64.90;98736.19;5027323;28;20385;-73
2022/03/28 05:37:00;;;;;;;;;;;;;;;7.15;64.14;98732.22;5012617;28;19932;-74
2022/03/28 05:39:28;;;;;;;;;;;;;;;7.42;63.34;98734.66;5011636;28;19928;-79
2022/03/28 05:41:59;;;;;;;;;;;;;;;7.62;62.67;98740.06;5020437;28;19929;-73
2022/03/28 05:44:31;;;;;;;;;;;;;;;7.61;62.99;98739.22;5011905;28;19924;-74
2022/03/28 05:46:59;;;;;;;;;;;;;;;7.59;62.46;98735.19;5007469;28;19925;-75
2022/03/28 05:49:31;;;;;;;;;;;;;;;7.40;62.64;98736.81;4999625;28;19932;-75
2022/03/28 05:52:00;;;;;;;;;;;;;;;7.57;62.51;98737.38;5004576;28;20303;-75
2022/03/28 05:54:30;;;;;;;;;;;;;;;7.32;63.17;98740.88;5000776;28;19925;-75
2022/03/28 05:57:00;;;;;;;;;;;;;;;6.63;66.17;98734.00;4994214;28;19951;-74
2022/03/28 05:59:30;;;;;;;;;;;;;;;6.78;65.76;98742.13;5013476;28;19925;-77
2022/03/28 06:02:01;;;;;;;;;;;;;;;6.97;65.37;98734.34;5023351;28;19929;-74
2022/03/28 06:04:30;;;;;;;;;;;;;;;7.26;64.50;98740.06;5012639;28;20379;-72
2022/03/28 06:07:00;;;;;;;;;;;;;;;7.30;63.27;98741.16;5006003;28;19940;-74
2022/03/28 06:09:30;;;;;;;;;;;;;;;7.07;64.17;98744.34;5045252;28;20018;-72
2022/03/28 06:11:58;;;;;;;;;;;;;;;7.28;63.40;98739.78;5002792;28;19936;-73
2022/03/28 06:14:27;;;;;;;;;;;;;;;7.21;63.99;98736.53;5012183;28;19925;-73
2022/03/28 06:16:56;;;;;;;;;;;;;;;7.77;63.24;98731.91;5010769;28;19932;-73
2022/03/28 06:19:26;;;;;;;;;;;;;;;7.78;63.58;98732.75;5045199;28;19968;-71
2022/03/28 06:21:54;;;;;;;;;;;;;;;7.79;62.42;98737.88;5010499;28;20023;-72
2022/03/28 06:24:22;;;;;;;;;;;;;;;7.57;63.60;98731.97;5027395;28;19976;-72
2022/03/28 06:26:50;;;;;;;;;;;;;;;7.37;64.77;98721.94;5005957;28;20311;-73
2022/03/28 06:29:21;;;;;;;;;;;;;;;7.10;65.63;98719.50;5015969;28;19936;-73
2022/03/28 06:31:50;;;;;;;;;;;;;;;7.21;65.92;98723.84;5001340;28;19933;-73
2022/03/28 06:34:20;;;;;;;;;;;;;;;7.36;64.95;98731.16;5025571;28;20371;-73
2022/03/28 06:36:49;;;;;;;;;;;;;;;7.64;64.41;98732.50;5014527;28;20318;-73
2022/03/28 06:39:43;;;;;;;;;;;;;;;7.69;63.54;98720.84;5016802;28;19967;-73
2022/03/28 06:42:11;;;;;;;;;;;;;;;8.04;62.70;98728.06;5008417;28;19925;-72
2022/03/28 06:44:39;;;;;;;;;;;;;;;8.06;62.50;98728.63;5006563;28;19925;-72
2022/03/28 06:47:10;;;;;;;;;;;;;;;8.28;61.62;98723.69;5006640;28;19932;-72
2022/03/28 06:49:40;;;;;;;;;;;;;;;8.21;61.88;98716.97;5011036;28;20852;-72
2022/03/28 06:52:20;;;;;;;;;;;;;;;8.37;61.38;98719.34;5014369;28;19924;-72
2022/03/28 06:54:48;;;;;;;;;;;;;;;8.74;61.04;98723.53;5008680;28;19953;-72
2022/03/28 06:57:17;;;;;;;;;;;;;;;8.99;59.55;98724.44;5014980;28;19931;-72
2022/03/28 06:59:45;;;;;;;;;;;;;;;8.79;60.11;98714.53;5000656;28;19933;-72
2022/03/28 07:02:14;;;;;;;;;;;;;;;9.17;60.92;98713.75;5011430;28;19978;-74
2022/03/28 07:04:46;;;;;;;;;;;;;;;9.09;59.59;98714.34;5014515;28;20272;-74
2022/03/28 07:07:17;;;;;;;;;;;;;;;8.85;61.55;98713.44;5006855;28;19925;-74
2022/03/28 07:09:50;;;;;;;;;;;;;;;8.90;61.57;98708.81;5009278;28;20155;-74
2022/03/28 07:12:19;;;;;;;;;;;;;;;8.98;60.45;98703.88;5041142;28;19925;-74
2022/03/28 07:14:48;;;;;;;;;;;;;;;9.13;60.05;98709.19;5015175;28;19929;-74
2022/03/28 07:17:16;;;;;;;;;;;;;;;9.42;60.90;98701.88;5011366;28;20279;-74
2022/03/28 07:19:46;;;;;;;;;;;;;;;9.51;60.06;98710.22;5013824;28;19925;-74
2022/03/28 07:22:14;;;;;;;;;;;;;;;9.55;59.00;98705.06;5003741;28;19932;-74
2022/03/28 07:27:39;;;;;;;;;;;;;;;9.99;59.69;98694.03;5024468;28;19929;-71
2022/03/28 07:30:08;;;;;;;;;;;;;;;10.12;58.38;98703.38;5014297;28;19924;-72
2022/03/28 07:32:39;;;;;;;;;;;;;;;10.21;57.85;98699.75;5025634;28;19933;-70
2022/03/28 07:35:10;;;;;;;;;;;;;;;10.33;58.72;98696.63;5003195;28;19925;-70
2022/03/28 07:37:38;;;;;;;;;;;;;;;10.27;57.96;98695.09;5028464;28;19971;-74
2022/03/28 07:43:23;;;;;;;;;;;;;;;10.83;57.79;98686.22;5009628;28;19936;-73
2022/03/28 07:45:54;;;;;;;;;;;;;;;10.78;58.28;98688.19;5005922;28;20034;-72
2022/03/28 07:48:48;;;;;;;;;;;;;;;11.10;56.79;98682.03;5024544;28;20058;-70
2022/03/28 07:51:20;;;;;;;;;;;;;;;11.01;56.16;98679.94;5009723;28;19924;-70
2022/03/28 07:53:50;;;;;;;;;;;;;;;11.21;55.87;98678.03;5013539;28;19924;-69
2022/03/28 07:56:22;;;;;;;;;;;;;;;11.41;55.40;98676.91;5010982;28;20294;-70
2022/03/28 07:58:50;;;;;;;;;;;;;;;11.46;55.40;98683.06;5004199;28;19968;-70
2022/03/28 08:01:18;;;;;;;;;;;;;;;11.78;55.18;98681.41;5007054;28;19929;-70
2022/03/28 08:03:48;;;;;;;;;;;;;;;11.97;54.37;98674.00;5008062;28;20006;-70
2022/03/28 08:06:16;;;;;;;;;;;;;;;12.14;55.37;98678.03;5003654;28;19928;-71
2022/03/28 08:08:48;;;;;;;;;;;;;;;12.34;54.46;98674.91;5015433;28;19933;-70
2022/03/28 08:11:18;;;;;;;;;;;;;;;12.35;53.59;98671.06;5005747;28;20019;-71
2022/03/28 08:13:46;;;;;;;;;;;;;;;12.59;53.47;98665.38;5003395;28;20080;-70
2022/03/28 08:16:15;;;;;;;;;;;;;;;12.76;52.96;98665.53;5020381;28;19925;-70
2022/03/28 08:18:44;;;;;;;;;;;;;;;12.98;52.84;98664.78;5003036;28;19925;-70
2022/03/28 08:21:13;;;;;;;;;;;;;;;13.02;52.11;98659.50;5004031;28;20461;-72
2022/03/28 08:23:45;;;;;;;;;;;;;;;13.20;53.03;98657.72;5029289;28;19932;-70
2022/03/28 08:26:15;;;;;;;;;;;;;;;13.35;51.64;98660.09;5024858;28;20295;-70
2022/03/28 08:28:45;;;;;;;;;;;;;;;13.53;51.72;98661.84;5005114;28;19955;-71
2022/03/28 08:31:14;;;;;;;;;;;;;;;13.72;50.98;98655.34;5035505;28;19925;-71
2022/03/28 08:33:45;;;;;;;;;;;;;;;13.92;50.96;98649.34;5027521;28;19924;-71
2022/03/28 08:36:13;;;;;;;;;;;;;;;14.26;50.45;98650.56;5012647;28;19964;-71
2022/03/28 08:38:42;;;;;;;;;;;;;;;14.27;49.21;98646.72;5029316;28;19925;-71
2022/03/28 08:44:06;;;;;;;;;;;;;;;14.68;49.12;98647.16;5007779;28;19936;-71
2022/03/28 08:46:34;;;;;;;;;;;;;;;14.71;47.94;98634.78;5009991;28;19941;-71
2022/03/28 08:49:05;;;;;;;;;;;;;;;14.82;47.00;98632.53;5013216;28;20330;-71
2022/03/28 08:51:36;;;;;;;;;;;;;;;14.71;46.89;98637.50;5010937;28;20437;-71
2022/03/28 08:54:05;;;;;;;;;;;;;;;14.92;46.98;98627.53;5004514;28;19972;-71
2022/03/28 08:56:33;;;;;;;;;;;;;;;15.04;46.41;98632.38;5013855;28;19929;-74
2022/03/28 08:59:33;;;;;;;;;;;;;;;15.07;45.60;98628.16;5024068;28;19929;-74
2022/03/28 09:02:05;;;;;;;;;;;;;;;15.18;45.43;98627.53;5015725;28;20404;-74
2022/03/28 09:04:37;;;;;;;;;;;;;;;15.31;44.89;98619.47;4997195;28;19970;-74
2022/03/28 09:07:05;;;;;;;;;;;;;;;15.52;44.40;98625.06;5008573;28;20370;-74
2022/03/28 09:09:34;;;;;;;;;;;;;;;15.79;43.89;98626.59;5018818;28;20367;-74
2022/03/28 09:12:06;;;;;;;;;;;;;;;16.01;43.31;98618.13;5012654;28;19925;-74
2022/03/28 09:14:35;;;;;;;;;;;;;;;16.10;43.55;98612.63;5007490;28;19925;-74
2022/03/28 09:17:05;;;;;;;;;;;;;;;16.23;42.38;98606.88;5012235;28;19925;-74
2022/03/28 09:19:43;;;;;;;;;;;;;;;16.45;42.81;98607.72;5035622;28;19978;-74
2022/03/28 09:22:14;;;;;;;;;;;;;;;16.28;41.44;98600.41;5019204;28;20020;-74
2022/03/28 09:24:43;;;;;;;;;;;;;;;16.53;40.95;98595.88;5013013;28;20044;-74
2022/03/28 09:27:12;;;;;;;;;;;;;;;16.32;41.47;98597.81;5015760;28;20348;-74
2022/03/28 09:29:54;;;;;;;;;;;;;;;15.82;42.28;98595.78;5029399;28;19932;-74
2022/03/28 09:32:24;;;;;;;;;;;;;;;16.24;42.20;98592.06;5013715;28;20375;-74
2022/03/28 09:35:19;;;;;;;;;;;;;;;16.59;41.12;98591.00;5013888;28;19933;-74
2022/03/28 09:37:51;;;;;;;;;;;;;;;16.77;40.31;98576.84;5013879;28;19929;-74
2022/03/28 09:40:26;;;;;;;;;;;;;;;16.98;40.89;98587.78;5022550;28;19925;-74
2022/03/28 09:42:55;;;;;;;;;;;;;;;17.31;41.50;98577.94;5036199;28;19957;-74
2022/03/28 09:45:24;;;;;;;;;;;;;;;17.25;39.51;98578.16;5016445;28;20555;-74
2022/03/28 09:47:56;;;;;;;;;;;;;;;16.40;39.59;98567.56;5012183;28;19931;-74
2022/03/28 09:50:29;;;;;;;;;;;;;;;16.35;39.79;98575.19;5033959;28;19924;-75
2022/03/28 09:53:12;;;;;;;;;;;;;;;16.68;39.33;98564.31;5013597;28;19925;-74
2022/03/28 09:55:50;;;;;;;;;;;;;;;17.24;39.10;98551.84;5028405;28;20005;-73
2022/03/28 09:58:38;;;;;;;;;;;;;;;17.41;39.09;98550.06;5045393;28;19963;-73
2022/03/28 10:01:14;;;;;;;;;;;;;;;17.67;39.58;98547.78;5030539;28;19931;-75
2022/03/28 10:03:45;;;;;;;;;;;;;;;18.02;37.97;98547.38;5018164;28;20018;-73
2022/03/28 10:06:13;;;;;;;;;;;;;;;17.78;37.27;98537.97;5015731;28;20346;-73
2022/03/28 10:08:41;;;;;;;;;;;;;;;18.17;36.91;98545.88;5042086;28;19924;-75
2022/03/28 10:11:10;;;;;;;;;;;;;;;18.22;37.00;98534.66;5017395;28;19925;-73
2022/03/28 10:13:38;;;;;;;;;;;;;;;18.10;36.50;98540.16;5023103;28;20457;-74
2022/03/28 10:16:06;;;;;;;;;;;;;;;18.10;35.57;98526.41;5017948;28;19925;-74
2022/03/28 10:18:35;;;;;;;;;;;;;;;18.09;35.11;98517.34;5017882;28;19925;-74
2022/03/28 10:21:07;;;;;;;;;;;;;;;18.08;35.42;98520.47;5017582;28;19963;-73
2022/03/28 10:23:37;;;;;;;;;;;;;;;18.15;35.28;98513.22;5019102;28;19925;-75
2022/03/28 10:26:08;;;;;;;;;;;;;;;17.91;36.27;98507.78;5035016;28;19931;-74
2022/03/28 10:28:40;;;;;;;;;;;;;;;17.65;32.16;98503.38;5015018;28;19937;-74
2022/03/28 10:31:09;;;;;;;;;;;;;;;17.71;33.64;98498.47;5017558;28;19937;-74
2022/03/28 10:33:57;;;;;;;;;;;;;;;17.58;31.21;98494.91;5028230;28;19925;-75
2022/03/28 10:36:28;;;;;;;;;;;;;;;17.65;31.87;98488.84;5014928;28;19931;-75
2022/03/28 10:39:12;;;;;;;;;;;;;;;18.15;34.70;98474.72;5008544;28;19929;-74
2022/03/28 10:41:41;;;;;;;;;;;;;;;17.71;31.39;98491.00;5006126;28;19929;-75
2022/03/28 10:44:09;;;;;;;;;;;;;;;18.08;32.70;98480.00;5007112;28;19933;-75
2022/03/28 10:46:37;;;;;;;;;;;;;;;18.38;30.59;98474.22;5003876;28;20003;-75
2022/03/28 10:49:07;;;;;;;;;;;;;;;18.70;30.09;98473.19;5019277;28;19925;-75
2022/03/28 10:51:37;;;;;;;;;;;;;;;18.86;30.20;98464.19;5012323;28;19948;-75
2022/03/28 10:54:05;;;;;;;;;;;;;;;18.25;29.91;98460.47;5008681;28;20439;-75
2022/03/28 10:56:34;;;;;;;;;;;;;;;18.27;31.36;98455.44;5003852;28;19925;-75
2022/03/28 10:59:06;;;;;;;;;;;;;;;18.29;29.95;98452.34;5008779;28;19929;-75
2022/03/28 11:01:35;;;;;;;;;;;;;;;18.37;29.40;98439.59;5011615;28;19925;-75
2022/03/28 11:04:05;;;;;;;;;;;;;;;18.28;30.88;98437.00;5012859;28;19982;-75
2022/03/28 11:06:52;;;;;;;;;;;;;;;18.50;29.68;98424.66;5024357;28;20032;-75
2022/03/28 11:09:43;;;;;;;;;;;;;;;18.66;31.01;98430.97;5012629;28;19928;-74
2022/03/28 11:12:12;;;;;;;;;;;;;;;18.99;28.95;98427.16;5018538;28;19974;-75
2022/03/28 11:14:42;;;;;;;;;;;;;;;18.82;29.13;98418.06;5018997;28;20025;-74
2022/03/28 11:17:15;;;;;;;;;;;;;;;18.62;27.84;98410.81;5012592;28;19990;-74
2022/03/28 11:19:55;;;;;;;;;;;;;;;18.47;27.18;98409.63;5009304;28;19971;-74
2022/03/28 11:22:39;;;;;;;;;;;;;;;18.92;31.01;98402.19;5015743;28;19924;-74
2022/03/28 11:25:22;;;;;;;;;;;;;;;18.61;27.86;98398.22;5026327;28;19925;-74
2022/03/28 11:28:02;;;;;;;;;;;;;;;18.97;27.67;98390.94;5008416;28;19924;-74
2022/03/28 11:30:31;;;;;;;;;;;;;;;19.01;27.59;98395.34;5023886;28;19929;-74
2022/03/28 11:33:25;;;;;;;;;;;;;;;19.24;25.88;98381.75;5007549;28;19932;-74
2022/03/28 11:35:54;;;;;;;;;;;;;;;18.49;24.42;98379.81;5009394;28;19932;-74
2022/03/28 11:38:23;;;;;;;;;;;;;;;18.96;24.19;98375.53;5018599;28;19931;-74
2022/03/28 11:40:52;;;;;;;;;;;;;;;19.30;26.67;98372.06;5013698;28;20366;-75
2022/03/28 11:43:34;;;;;;;;;;;;;;;19.45;25.55;98377.91;5011998;28;20028;-74
2022/03/28 11:46:07;;;;;;;;;;;;;;;18.86;23.63;98370.59;5027505;28;19931;-75
2022/03/28 11:48:35;;;;;;;;;;;;;;;18.64;24.44;98363.66;5010732;28;19925;-74
2022/03/28 11:51:14;;;;;;;;;;;;;;;18.89;26.68;98364.34;5015081;28;19925;-75
2022/03/28 11:53:42;;;;;;;;;;;;;;;19.37;26.91;98358.44;5011955;28;19976;-74
2022/03/28 11:56:10;;;;;;;;;;;;;;;19.29;24.30;98351.19;5008116;28;19939;-75
2022/03/28 11:58:40;;;;;;;;;;;;;;;19.00;24.28;98346.13;5013288;28;19960;-74
2022/03/28 12:01:09;;;;;;;;;;;;;;;19.18;24.42;98354.84;5008832;28;19925;-74
2022/03/28 12:03:38;;;;;;;;;;;;;;;19.17;24.75;98337.50;5008677;28;19925;-74
2022/03/28 12:06:09;;;;;;;;;;;;;;;19.28;27.33;98332.25;5003488;28;20012;-75
2022/03/28 12:08:42;;;;;;;;;;;;;;;19.18;24.06;98325.34;5003617;28;19991;-74
2022/03/28 12:11:10;;;;;;;;;;;;;;;19.13;24.27;98324.81;5013259;28;19975;-74
2022/03/28 12:13:41;;;;;;;;;;;;;;;19.08;23.39;98323.13;5009774;28;19924;-75
2022/03/28 12:16:09;;;;;;;;;;;;;;;19.11;23.92;98316.91;5002949;28;19925;-73
2022/03/28 12:18:37;;;;;;;;;;;;;;;18.76;24.19;98316.84;5008843;28;19931;-73
2022/03/28 12:21:06;;;;;;;;;;;;;;;19.08;24.05;98306.63;5017231;28;19975;-73
2022/03/28 12:23:34;;;;;;;;;;;;;;;18.74;24.22;98297.13;5012112;28;19979;-73
2022/03/28 12:26:06;;;;;;;;;;;;;;;18.62;24.44;98300.75;5014208;28;19925;-74
2022/03/28 12:28:35;;;;;;;;;;;;;;;18.77;25.20;98301.94;5005806;28;19968;-73
2022/03/28 12:31:08;;;;;;;;;;;;;;;18.62;23.92;98297.19;5015812;28;19975;-73
2022/03/28 12:33:39;;;;;;;;;;;;;;;18.71;23.85;98289.59;5011748;28;19932;-73
2022/03/28 12:36:08;;;;;;;;;;;;;;;18.77;23.51;98285.41;5006190;28;19975;-74
2022/03/28 12:38:38;;;;;;;;;;;;;;;19.01;23.72;98262.38;5031058;28;19929;-74
2022/03/28 12:41:11;;;;;;;;;;;;;;;19.02;23.52;98261.25;5012660;28;21106;-73
2022/03/28 12:43:39;;;;;;;;;;;;;;;19.17;22.97;98260.38;5014493;28;19933;-73
2022/03/28 12:46:10;;;;;;;;;;;;;;;19.27;23.58;98254.31;5009467;28;19948;-74
2022/03/28 12:48:40;;;;;;;;;;;;;;;19.24;23.62;98244.03;5024594;28;19974;-74
2022/03/28 12:51:09;;;;;;;;;;;;;;;19.23;23.17;98236.09;5007567;28;19961;-74
2022/03/28 12:53:40;;;;;;;;;;;;;;;19.13;23.21;98237.50;5001612;28;20019;-74
2022/03/28 12:56:13;;;;;;;;;;;;;;;19.05;23.13;98224.72;5021815;28;19980;-73
2022/03/28 12:58:42;;;;;;;;;;;;;;;18.88;23.57;98230.63;5031694;28;19924;-73
2022/03/28 13:01:12;;;;;;;;;;;;;;;18.75;23.74;98222.47;5010125;28;19932;-73
2022/03/28 13:03:42;;;;;;;;;;;;;;;18.99;23.94;98221.44;5015796;28;19925;-71
2022/03/28 13:06:13;;;;;;;;;;;;;;;18.99;22.53;98212.38;5005748;28;20466;-73
2022/03/28 13:08:44;;;;;;;;;;;;;;;18.88;23.25;98214.91;5006036;28;19927;-73
2022/03/28 13:11:17;;;;;;;;;;;;;;;19.19;23.36;98205.75;5005020;28;20004;-74
2022/03/28 13:13:52;;;;;;;;;;;;;;;19.01;22.49;98202.59;5010308;28;19948;-70
2022/03/28 13:16:22;;;;;;;;;;;;;;;19.09;22.73;98190.59;5014604;28;19931;-70
2022/03/28 13:19:00;;;;;;;;;;;;;;;19.46;24.92;98189.38;5029618;28;20421;-71
2022/03/28 13:21:32;;;;;;;;;;;;;;;19.40;22.61;98186.13;5009261;28;19932;-70
2022/03/28 13:24:04;;;;;;;;;;;;;;;19.25;22.27;98184.22;5016449;28;19933;-71